Time;durP1;ratioP1;P1;durP2;ratioP2;P2;SDS_P1;SDS_P2;PMS_P1;PMS_P2;Temp;Humidity;BMP_temperature;BMP_pressure;BME280_temperature;BME280_humidity;BME280_pressure;Samples;Min_cycle;Max_cycle;Signal;HPM_P1;HPM_P2
2023/05/01 00:00:48;;;;;;;4.75;2.45;;;;;;;;;;4990438;28;25058;-75
2023/05/01 00:03:16;;;;;;;4.53;3.22;;;;;;;;;;4996116;28;25075;-74
2023/05/01 00:05:43;;;;;;;6.32;2.40;;;;;;;;;;4989516;28;25073;-75
2023/05/01 00:08:09;;;;;;;6.10;2.88;;;;;;;;;;4994377;28;25072;-77
2023/05/01 00:10:35;;;;;;;7.15;3.10;;;;;;;;;;4982127;28;25108;-75
2023/05/01 00:13:02;;;;;;;4.63;3.10;;;;;;;;;;5004794;28;25097;-75
2023/05/01 00:15:28;;;;;;;4.70;2.55;;;;;;;;;;4985720;28;25102;-75
2023/05/01 00:17:54;;;;;;;4.07;2.75;;;;;;;;;;4990551;28;25088;-75
2023/05/01 00:20:22;;;;;;;3.92;2.42;;;;;;;;;;4979821;28;25057;-74
2023/05/01 00:22:48;;;;;;;7.40;2.92;;;;;;;;;;4976360;28;25048;-74
2023/05/01 00:25:14;;;;;;;4.97;3.25;;;;;;;;;;4973165;28;25097;-75
2023/05/01 00:27:40;;;;;;;7.75;2.85;;;;;;;;;;4993384;28;25115;-74
2023/05/01 00:30:06;;;;;;;5.15;2.95;;;;;;;;;;4978909;28;25094;-75
2023/05/01 00:32:33;;;;;;;4.53;3.00;;;;;;;;;;4976372;28;25066;-76
2023/05/01 00:34:59;;;;;;;5.68;3.63;;;;;;;;;;4976173;28;25148;-76
2023/05/01 00:37:25;;;;;;;6.55;2.72;;;;;;;;;;4983147;28;25077;-75
2023/05/01 00:39:51;;;;;;;5.25;3.00;;;;;;;;;;4979620;28;25133;-75
2023/05/01 00:42:18;;;;;;;4.38;3.00;;;;;;;;;;4983710;28;25165;-76
2023/05/01 00:44:45;;;;;;;6.05;3.00;;;;;;;;;;4990443;28;25075;-75
2023/05/01 00:47:11;;;;;;;4.22;3.30;;;;;;;;;;4975105;28;25080;-76
2023/05/01 00:49:36;;;;;;;4.20;3.00;;;;;;;;;;4976223;28;25058;-75
2023/05/01 00:52:03;;;;;;;8.00;3.20;;;;;;;;;;4985363;28;25127;-75
2023/05/01 00:54:29;;;;;;;5.35;3.30;;;;;;;;;;4972088;28;25074;-76
2023/05/01 00:56:55;;;;;;;6.38;3.30;;;;;;;;;;4975233;28;25114;-75
2023/05/01 00:59:21;;;;;;;3.92;2.75;;;;;;;;;;4988209;28;25069;-75
2023/05/01 01:01:49;;;;;;;7.65;3.50;;;;;;;;;;4966350;28;25075;-75
2023/05/01 01:04:15;;;;;;;2.85;2.58;;;;;;;;;;4979237;28;25058;-75
2023/05/01 01:06:47;;;;;;;6.40;3.25;;;;;;;;;;4975230;28;25052;-74
2023/05/01 01:09:28;;;;;;;5.47;2.92;;;;;;;;;;4983882;28;25087;-75
2023/05/01 01:12:09;;;;;;;9.20;2.90;;;;;;;;;;4978286;28;25097;-74
2023/05/01 01:14:54;;;;;;;5.93;3.42;;;;;;;;;;4981152;28;25074;-75
2023/05/01 01:17:20;;;;;;;5.32;3.17;;;;;;;;;;4999634;28;25082;-76
2023/05/01 01:19:49;;;;;;;7.80;3.47;;;;;;;;;;4994948;28;25076;-74
2023/05/01 01:22:19;;;;;;;6.70;3.33;;;;;;;;;;4984419;28;25054;-75
2023/05/01 01:25:05;;;;;;;5.15;2.72;;;;;;;;;;4990417;28;25061;-75
2023/05/01 01:27:57;;;;;;;7.40;3.08;;;;;;;;;;4985031;28;25151;-76
2023/05/01 01:30:42;;;;;;;9.80;4.18;;;;;;;;;;4982916;28;25089;-75
2023/05/01 01:33:27;;;;;;;6.53;2.90;;;;;;;;;;4980321;28;25098;-74
2023/05/01 01:35:54;;;;;;;4.68;3.10;;;;;;;;;;5010447;28;25063;-75
2023/05/01 01:38:24;;;;;;;7.65;3.13;;;;;;;;;;4994508;28;25075;-74
2023/05/01 01:40:55;;;;;;;4.70;3.33;;;;;;;;;;4978163;28;25115;-75
2023/05/01 01:43:22;;;;;;;5.72;3.22;;;;;;;;;;4984495;28;25067;-74
2023/05/01 01:45:53;;;;;;;5.63;3.75;;;;;;;;;;4974074;28;25058;-75
2023/05/01 01:48:22;;;;;;;5.93;3.22;;;;;;;;;;4967532;28;25165;-74
2023/05/01 01:50:48;;;;;;;10.70;3.92;;;;;;;;;;4978929;28;25062;-74
2023/05/01 01:53:17;;;;;;;5.35;3.47;;;;;;;;;;4978109;28;25063;-74
2023/05/01 01:55:44;;;;;;;6.05;3.95;;;;;;;;;;4981882;28;25075;-74
2023/05/01 01:58:10;;;;;;;8.30;3.85;;;;;;;;;;4975382;28;25105;-75
2023/05/01 02:00:37;;;;;;;6.82;3.70;;;;;;;;;;4982175;28;25059;-75
2023/05/01 02:03:03;;;;;;;6.88;3.90;;;;;;;;;;4977264;28;25107;-75
2023/05/01 02:05:31;;;;;;;10.32;3.55;;;;;;;;;;4981450;28;25183;-75
2023/05/01 02:07:58;;;;;;;6.63;3.67;;;;;;;;;;4983402;28;25072;-75
2023/05/01 02:10:25;;;;;;;5.82;4.22;;;;;;;;;;4971606;28;25148;-75
2023/05/01 02:12:52;;;;;;;4.32;3.55;;;;;;;;;;4992128;28;25076;-75
2023/05/01 02:15:18;;;;;;;10.48;3.97;;;;;;;;;;4968123;28;25133;-74
2023/05/01 02:17:45;;;;;;;8.40;3.85;;;;;;;;;;4971439;28;25061;-75
2023/05/01 02:20:12;;;;;;;7.43;3.78;;;;;;;;;;4977074;28;25076;-75
2023/05/01 02:22:39;;;;;;;5.25;3.30;;;;;;;;;;4965464;28;25107;-75
2023/05/01 02:25:07;;;;;;;6.32;3.95;;;;;;;;;;4971359;28;25067;-74
2023/05/01 02:27:38;;;;;;;8.82;3.97;;;;;;;;;;4973140;28;25147;-75
2023/05/01 02:30:05;;;;;;;7.18;4.20;;;;;;;;;;4978091;28;25067;-75
2023/05/01 02:32:31;;;;;;;6.85;4.03;;;;;;;;;;4963812;28;25063;-75
2023/05/01 02:34:58;;;;;;;6.40;3.72;;;;;;;;;;4972798;28;25072;-75
2023/05/01 02:37:26;;;;;;;6.68;3.72;;;;;;;;;;4980560;28;25089;-73
2023/05/01 02:39:52;;;;;;;7.28;3.50;;;;;;;;;;4966004;28;25077;-76
2023/05/01 02:42:20;;;;;;;8.15;4.10;;;;;;;;;;4953220;28;25062;-75
2023/05/01 02:45:01;;;;;;;6.25;3.88;;;;;;;;;;4958346;28;25049;-76
2023/05/01 02:47:28;;;;;;;9.13;4.25;;;;;;;;;;4963793;28;25109;-75
2023/05/01 02:49:54;;;;;;;8.13;3.95;;;;;;;;;;4966191;28;25062;-75
2023/05/01 02:52:21;;;;;;;9.70;4.18;;;;;;;;;;4969228;28;25062;-74
2023/05/01 02:54:47;;;;;;;8.07;4.47;;;;;;;;;;4966676;28;25065;-74
2023/05/01 02:57:14;;;;;;;9.23;4.32;;;;;;;;;;4969062;28;25059;-76
2023/05/01 02:59:40;;;;;;;6.80;3.88;;;;;;;;;;4967580;28;25053;-75
2023/05/01 03:02:06;;;;;;;8.27;3.78;;;;;;;;;;4970369;28;25065;-75
2023/05/01 03:04:32;;;;;;;5.47;4.15;;;;;;;;;;4968599;28;25069;-76
2023/05/01 03:06:58;;;;;;;8.73;4.47;;;;;;;;;;4971822;28;25077;-75
2023/05/01 03:09:24;;;;;;;7.88;4.05;;;;;;;;;;4972514;28;25068;-74
2023/05/01 03:11:50;;;;;;;8.90;4.57;;;;;;;;;;4983963;28;25112;-75
2023/05/01 03:14:16;;;;;;;9.80;4.35;;;;;;;;;;4970826;28;25044;-74
2023/05/01 03:16:43;;;;;;;14.80;4.53;;;;;;;;;;4970591;28;25138;-75
2023/05/01 03:19:10;;;;;;;8.02;4.70;;;;;;;;;;4970829;28;25113;-74
2023/05/01 03:21:36;;;;;;;10.45;5.30;;;;;;;;;;4961000;28;25087;-75
2023/05/01 03:24:02;;;;;;;8.90;4.38;;;;;;;;;;4966642;28;25180;-74
2023/05/01 03:26:28;;;;;;;10.93;4.72;;;;;;;;;;4966815;28;25082;-73
2023/05/01 03:28:54;;;;;;;5.80;4.70;;;;;;;;;;4961640;28;25128;-75
2023/05/01 03:31:20;;;;;;;8.02;5.35;;;;;;;;;;4965298;28;25120;-75
2023/05/01 03:33:47;;;;;;;8.05;4.55;;;;;;;;;;4969793;28;25076;-75
2023/05/01 03:36:13;;;;;;;8.55;5.20;;;;;;;;;;4970970;28;25109;-75
2023/05/01 03:38:39;;;;;;;9.73;4.35;;;;;;;;;;4970215;28;25066;-75
2023/05/01 03:41:05;;;;;;;9.48;4.90;;;;;;;;;;4971761;28;25071;-76
2023/05/01 03:43:31;;;;;;;6.50;4.25;;;;;;;;;;4959793;28;25154;-74
2023/05/01 03:45:57;;;;;;;6.05;4.70;;;;;;;;;;4965769;28;25053;-76
2023/05/01 03:48:24;;;;;;;7.53;4.57;;;;;;;;;;4971790;28;25093;-77
2023/05/01 03:50:50;;;;;;;7.25;4.60;;;;;;;;;;4965033;28;25054;-74
2023/05/01 03:53:17;;;;;;;7.60;4.57;;;;;;;;;;4969626;28;25162;-76
2023/05/01 03:55:43;;;;;;;8.48;4.35;;;;;;;;;;4982868;28;25050;-75
2023/05/01 03:58:09;;;;;;;6.82;4.25;;;;;;;;;;4974905;28;25063;-74
2023/05/01 04:00:36;;;;;;;8.20;4.28;;;;;;;;;;4963650;28;25069;-76
2023/05/01 04:03:02;;;;;;;7.68;4.70;;;;;;;;;;4984973;28;25101;-76
2023/05/01 04:05:28;;;;;;;6.05;3.97;;;;;;;;;;4995477;28;25166;-74
2023/05/01 04:07:54;;;;;;;4.82;3.78;;;;;;;;;;4994697;28;25086;-76
2023/05/01 04:10:20;;;;;;;6.25;4.60;;;;;;;;;;5007165;28;25104;-76
2023/05/01 04:12:46;;;;;;;10.85;4.63;;;;;;;;;;4998745;28;25081;-76
2023/05/01 04:15:12;;;;;;;5.70;3.85;;;;;;;;;;4984699;28;25089;-77
2023/05/01 04:17:38;;;;;;;7.32;4.50;;;;;;;;;;4994122;28;25057;-77
2023/05/01 04:20:07;;;;;;;8.52;4.82;;;;;;;;;;4994945;28;25096;-75
2023/05/01 04:22:33;;;;;;;7.70;4.03;;;;;;;;;;4990340;28;25052;-77
2023/05/01 04:24:59;;;;;;;10.75;4.25;;;;;;;;;;4999799;28;25074;-74
2023/05/01 04:27:25;;;;;;;7.50;4.03;;;;;;;;;;5003069;28;25059;-77
2023/05/01 04:29:51;;;;;;;6.47;4.20;;;;;;;;;;5000361;28;25057;-76
2023/05/01 04:32:17;;;;;;;6.03;4.50;;;;;;;;;;4997627;28;25070;-76
2023/05/01 04:34:43;;;;;;;12.48;4.75;;;;;;;;;;4995801;28;25081;-76
2023/05/01 04:37:09;;;;;;;6.80;3.85;;;;;;;;;;5011754;28;25069;-76
2023/05/01 04:39:35;;;;;;;9.65;3.80;;;;;;;;;;4996300;28;25133;-76
2023/05/01 04:42:02;;;;;;;8.45;4.32;;;;;;;;;;4984839;28;25083;-76
2023/05/01 04:44:29;;;;;;;8.57;4.65;;;;;;;;;;4991326;28;25054;-76
2023/05/01 04:46:54;;;;;;;6.03;3.72;;;;;;;;;;4992041;28;25069;-77
2023/05/01 04:49:21;;;;;;;6.07;4.70;;;;;;;;;;4993603;28;25089;-76
2023/05/01 04:51:47;;;;;;;6.93;4.32;;;;;;;;;;5001559;28;25075;-77
2023/05/01 04:54:13;;;;;;;12.60;4.50;;;;;;;;;;4989980;28;25150;-76
2023/05/01 04:56:39;;;;;;;8.93;4.57;;;;;;;;;;4990576;28;25083;-77
2023/05/01 04:59:05;;;;;;;8.88;4.82;;;;;;;;;;4981363;28;25094;-76
2023/05/01 05:01:31;;;;;;;9.43;5.10;;;;;;;;;;4978874;28;25093;-76
2023/05/01 05:03:57;;;;;;;9.70;4.78;;;;;;;;;;4981393;28;25058;-77
2023/05/01 05:06:23;;;;;;;9.65;4.13;;;;;;;;;;4973049;28;25052;-76
2023/05/01 05:08:52;;;;;;;10.52;4.45;;;;;;;;;;4989095;28;25066;-78
2023/05/01 05:11:18;;;;;;;7.80;4.28;;;;;;;;;;4977868;28;25073;-77
2023/05/01 05:13:45;;;;;;;11.40;4.95;;;;;;;;;;4974938;28;25166;-76
2023/05/01 05:16:11;;;;;;;7.25;4.00;;;;;;;;;;4969253;28;25077;-76
2023/05/01 05:18:40;;;;;;;8.55;4.65;;;;;;;;;;4966626;28;25097;-77
2023/05/01 05:21:07;;;;;;;7.65;4.45;;;;;;;;;;4966648;28;25064;-76
2023/05/01 05:23:33;;;;;;;12.20;4.30;;;;;;;;;;4972553;28;25059;-78
2023/05/01 05:26:00;;;;;;;7.65;4.53;;;;;;;;;;4974971;28;25064;-78
2023/05/01 05:28:26;;;;;;;10.38;4.60;;;;;;;;;;4992093;28;25077;-78
2023/05/01 05:30:52;;;;;;;7.30;4.28;;;;;;;;;;4973303;28;25106;-78
2023/05/01 05:33:18;;;;;;;10.73;4.50;;;;;;;;;;4973717;28;25049;-77
2023/05/01 05:35:44;;;;;;;6.60;4.80;;;;;;;;;;4969800;28;25054;-78
2023/05/01 05:38:10;;;;;;;10.07;4.82;;;;;;;;;;4967660;28;25072;-76
2023/05/01 05:40:36;;;;;;;13.05;4.78;;;;;;;;;;4968093;28;25071;-78
2023/05/01 05:43:02;;;;;;;10.80;4.82;;;;;;;;;;4980899;28;25076;-78
2023/05/01 05:45:28;;;;;;;8.80;4.65;;;;;;;;;;4968573;28;25086;-78
2023/05/01 05:47:54;;;;;;;15.10;5.80;;;;;;;;;;4973230;28;25107;-77
2023/05/01 05:50:25;;;;;;;10.57;4.95;;;;;;;;;;4971860;28;25121;-77
2023/05/01 05:52:51;;;;;;;16.15;5.82;;;;;;;;;;4968868;28;25165;-76
2023/05/01 05:55:17;;;;;;;14.70;5.57;;;;;;;;;;4978487;28;25069;-77
2023/05/01 05:57:43;;;;;;;11.55;5.05;;;;;;;;;;4978083;28;25073;-75
2023/05/01 06:00:09;;;;;;;9.10;4.82;;;;;;;;;;4991258;28;25068;-78
2023/05/01 06:02:36;;;;;;;11.15;5.63;;;;;;;;;;4979435;28;25071;-78
2023/05/01 06:05:02;;;;;;;15.32;5.32;;;;;;;;;;4971879;28;25075;-77
2023/05/01 06:07:28;;;;;;;10.65;5.32;;;;;;;;;;4971256;28;25058;-77
2023/05/01 06:09:54;;;;;;;12.55;5.13;;;;;;;;;;4970810;28;25153;-76
2023/05/01 06:12:20;;;;;;;17.00;6.30;;;;;;;;;;4974882;28;25083;-76
2023/05/01 06:14:46;;;;;;;11.45;6.80;;;;;;;;;;4984530;28;25065;-76
2023/05/01 06:17:13;;;;;;;10.65;5.20;;;;;;;;;;4970964;28;25123;-76
2023/05/01 06:19:39;;;;;;;9.63;4.88;;;;;;;;;;4976722;28;25077;-77
2023/05/01 06:22:06;;;;;;;8.07;4.68;;;;;;;;;;4977191;28;25102;-77
2023/05/01 06:24:32;;;;;;;11.13;5.82;;;;;;;;;;4969155;28;25111;-78
2023/05/01 06:26:58;;;;;;;13.35;5.85;;;;;;;;;;4957667;28;25168;-77
2023/05/01 06:29:24;;;;;;;8.25;4.93;;;;;;;;;;4964881;28;25063;-76
2023/05/01 06:31:50;;;;;;;12.25;5.18;;;;;;;;;;4960715;28;25067;-77
2023/05/01 06:34:16;;;;;;;12.65;5.65;;;;;;;;;;4966754;28;25076;-77
2023/05/01 06:36:42;;;;;;;9.63;5.45;;;;;;;;;;4978694;28;25101;-76
2023/05/01 06:39:08;;;;;;;8.25;5.38;;;;;;;;;;4977329;28;25080;-76
2023/05/01 06:41:34;;;;;;;11.02;5.47;;;;;;;;;;4970958;28;25141;-77
2023/05/01 06:44:01;;;;;;;14.75;5.68;;;;;;;;;;4967836;28;25071;-78
2023/05/01 06:46:26;;;;;;;13.90;5.07;;;;;;;;;;4950342;28;25059;-76
2023/05/01 06:48:53;;;;;;;11.38;4.97;;;;;;;;;;4966567;28;25048;-77
2023/05/01 06:51:19;;;;;;;8.38;5.03;;;;;;;;;;4960855;28;25065;-76
2023/05/01 06:53:44;;;;;;;12.15;5.00;;;;;;;;;;4983525;28;25144;-76
2023/05/01 06:56:10;;;;;;;9.00;4.80;;;;;;;;;;4971934;28;25058;-76
2023/05/01 06:58:36;;;;;;;13.88;5.90;;;;;;;;;;4967743;28;25064;-75
2023/05/01 07:01:03;;;;;;;14.00;4.88;;;;;;;;;;4967570;28;25104;-76
2023/05/01 07:03:29;;;;;;;10.85;5.53;;;;;;;;;;5000854;28;25086;-78
2023/05/01 07:05:55;;;;;;;9.15;4.82;;;;;;;;;;4988478;28;25073;-76
2023/05/01 07:08:23;;;;;;;11.63;4.80;;;;;;;;;;4988712;28;25075;-76
2023/05/01 07:10:49;;;;;;;8.63;5.63;;;;;;;;;;4970430;28;25056;-75
2023/05/01 07:13:16;;;;;;;12.25;5.47;;;;;;;;;;4971045;28;25067;-76
2023/05/01 07:15:42;;;;;;;10.60;5.00;;;;;;;;;;4982527;28;25102;-76
2023/05/01 07:18:07;;;;;;;9.93;5.07;;;;;;;;;;5003960;28;25059;-76
2023/05/01 07:20:33;;;;;;;6.63;4.97;;;;;;;;;;5003781;28;25057;-75
2023/05/01 07:23:00;;;;;;;11.85;5.22;;;;;;;;;;4974132;28;25093;-76
2023/05/01 07:25:27;;;;;;;8.95;5.10;;;;;;;;;;5000624;28;25071;-77
2023/05/01 07:27:53;;;;;;;8.77;4.95;;;;;;;;;;4987730;28;26177;-77
2023/05/01 07:30:19;;;;;;;10.40;5.05;;;;;;;;;;4970894;28;25091;-76
2023/05/01 07:32:45;;;;;;;13.65;5.32;;;;;;;;;;4994413;28;25110;-75
2023/05/01 07:35:12;;;;;;;11.13;4.85;;;;;;;;;;4978726;28;25062;-76
2023/05/01 07:37:38;;;;;;;14.43;5.53;;;;;;;;;;4969245;28;25504;-77
2023/05/01 07:40:04;;;;;;;13.00;6.03;;;;;;;;;;4968533;28;25074;-77
2023/05/01 07:42:30;;;;;;;8.25;4.75;;;;;;;;;;4965267;28;25087;-77
2023/05/01 07:44:56;;;;;;;16.48;5.40;;;;;;;;;;4980772;28;25175;-77
2023/05/01 07:47:23;;;;;;;9.15;5.10;;;;;;;;;;4979141;28;25075;-78
2023/05/01 07:49:48;;;;;;;13.38;5.30;;;;;;;;;;4989472;28;25079;-77
2023/05/01 07:52:15;;;;;;;9.77;4.78;;;;;;;;;;4994295;28;25068;-77
2023/05/01 07:54:41;;;;;;;13.38;4.93;;;;;;;;;;4988507;28;25079;-78
2023/05/01 07:57:07;;;;;;;13.40;4.95;;;;;;;;;;5016671;28;25123;-76
2023/05/01 07:59:33;;;;;;;11.60;4.78;;;;;;;;;;4990404;28;25080;-79
2023/05/01 08:01:59;;;;;;;12.23;5.72;;;;;;;;;;4977896;28;25157;-76
2023/05/01 08:04:25;;;;;;;11.95;5.60;;;;;;;;;;4981335;28;25076;-77
2023/05/01 08:06:51;;;;;;;12.05;5.80;;;;;;;;;;4979106;28;25075;-77
2023/05/01 08:09:17;;;;;;;11.45;5.75;;;;;;;;;;4981592;28;25151;-77
2023/05/01 08:11:43;;;;;;;8.65;5.53;;;;;;;;;;4975701;28;25094;-78
2023/05/01 08:14:09;;;;;;;12.60;5.40;;;;;;;;;;4956550;28;25108;-78
2023/05/01 08:16:35;;;;;;;10.18;5.97;;;;;;;;;;4979003;28;25144;-77
2023/05/01 08:19:01;;;;;;;12.00;5.93;;;;;;;;;;4973965;28;25081;-76
2023/05/01 08:21:27;;;;;;;10.98;5.50;;;;;;;;;;4968257;28;25066;-77
2023/05/01 08:23:55;;;;;;;12.20;5.80;;;;;;;;;;4973105;28;25079;-76
2023/05/01 08:26:21;;;;;;;14.05;5.75;;;;;;;;;;4967733;28;25062;-77
2023/05/01 08:28:47;;;;;;;12.45;6.53;;;;;;;;;;4969282;28;25093;-77
2023/05/01 08:31:13;;;;;;;10.63;5.85;;;;;;;;;;4967259;28;25060;-76
2023/05/01 08:33:43;;;;;;;13.70;5.90;;;;;;;;;;4968083;28;25054;-76
2023/05/01 08:36:09;;;;;;;13.18;5.75;;;;;;;;;;4967648;28;25086;-75
2023/05/01 08:38:36;;;;;;;11.77;6.22;;;;;;;;;;4970625;28;25059;-76
2023/05/01 08:41:02;;;;;;;10.65;5.45;;;;;;;;;;4968630;28;25060;-76
2023/05/01 08:43:31;;;;;;;9.18;6.47;;;;;;;;;;4967932;28;25150;-77
2023/05/01 08:46:00;;;;;;;13.75;6.60;;;;;;;;;;4966490;28;25065;-78
2023/05/01 08:48:27;;;;;;;13.73;7.47;;;;;;;;;;4964290;28;25113;-76
2023/05/01 08:50:55;;;;;;;16.83;7.50;;;;;;;;;;4967386;28;25080;-76
2023/05/01 08:53:21;;;;;;;11.80;6.22;;;;;;;;;;4979549;28;25105;-77
2023/05/01 08:55:48;;;;;;;12.40;6.38;;;;;;;;;;4964058;28;25126;-77
2023/05/01 08:58:14;;;;;;;10.80;6.70;;;;;;;;;;4966902;28;25068;-77
2023/05/01 09:00:41;;;;;;;15.25;7.30;;;;;;;;;;4980556;28;25067;-77
2023/05/01 09:03:09;;;;;;;16.23;7.60;;;;;;;;;;4961416;28;25054;-76
2023/05/01 09:05:35;;;;;;;10.38;6.93;;;;;;;;;;4960930;28;25226;-75
2023/05/01 09:08:02;;;;;;;15.75;6.68;;;;;;;;;;4967447;28;25105;-77
2023/05/01 09:10:29;;;;;;;21.70;7.25;;;;;;;;;;4971229;28;25080;-75
2023/05/01 09:12:56;;;;;;;10.05;6.30;;;;;;;;;;4962500;28;25055;-77
2023/05/01 09:15:23;;;;;;;13.10;6.22;;;;;;;;;;4966206;28;25068;-75
2023/05/01 09:17:50;;;;;;;12.90;5.82;;;;;;;;;;4959917;28;25066;-77
2023/05/01 09:20:16;;;;;;;15.02;5.85;;;;;;;;;;4967832;28;25043;-75
2023/05/01 09:22:42;;;;;;;13.18;5.97;;;;;;;;;;4970485;28;25061;-76
2023/05/01 09:25:09;;;;;;;12.23;6.32;;;;;;;;;;4961071;28;25070;-75
2023/05/01 09:27:36;;;;;;;14.75;5.95;;;;;;;;;;4964965;28;25060;-76
2023/05/01 09:30:02;;;;;;;12.95;5.95;;;;;;;;;;4973479;28;25167;-77
2023/05/01 09:32:28;;;;;;;16.65;6.93;;;;;;;;;;4967119;28;25080;-77
2023/05/01 09:34:55;;;;;;;16.58;6.78;;;;;;;;;;4968864;28;25109;-78
2023/05/01 09:37:28;;;;;;;11.98;6.38;;;;;;;;;;4975820;28;25065;-77
2023/05/01 09:40:07;;;;;;;13.23;6.20;;;;;;;;;;4970729;28;25158;-76
2023/05/01 09:42:36;;;;;;;14.32;6.95;;;;;;;;;;4963225;28;25147;-77
2023/05/01 09:45:03;;;;;;;12.18;6.53;;;;;;;;;;4970914;28;25074;-76
2023/05/01 09:47:30;;;;;;;12.80;6.25;;;;;;;;;;4969456;28;25079;-75
2023/05/01 09:49:58;;;;;;;13.32;6.60;;;;;;;;;;4969168;28;25168;-75
2023/05/01 09:52:27;;;;;;;13.18;8.40;;;;;;;;;;4972434;28;25046;-76
2023/05/01 09:55:12;;;;;;;15.48;6.55;;;;;;;;;;4962692;28;25061;-76
2023/05/01 09:57:38;;;;;;;14.00;7.38;;;;;;;;;;4966772;28;25056;-77
2023/05/01 10:00:07;;;;;;;15.60;8.13;;;;;;;;;;4967575;28;25071;-75
2023/05/01 10:02:33;;;;;;;14.13;7.18;;;;;;;;;;4967925;28;25076;-73
2023/05/01 10:04:59;;;;;;;11.95;7.00;;;;;;;;;;4966747;28;25055;-75
2023/05/01 10:07:26;;;;;;;15.27;6.53;;;;;;;;;;4963074;28;25059;-74
2023/05/01 10:09:52;;;;;;;16.35;7.68;;;;;;;;;;4965278;28;25047;-76
2023/05/01 10:12:28;;;;;;;18.58;7.35;;;;;;;;;;4966884;28;25078;-75
2023/05/01 10:14:54;;;;;;;16.73;7.03;;;;;;;;;;4959108;28;25077;-76
2023/05/01 10:17:21;;;;;;;11.50;5.57;;;;;;;;;;4966477;28;25086;-78
2023/05/01 10:19:50;;;;;;;8.35;5.13;;;;;;;;;;4970355;28;25081;-74
2023/05/01 10:22:16;;;;;;;12.13;5.97;;;;;;;;;;4958190;28;25061;-74
2023/05/01 10:24:45;;;;;;;10.85;4.97;;;;;;;;;;4967452;28;25066;-77
2023/05/01 10:27:12;;;;;;;10.63;5.93;;;;;;;;;;4969447;28;25147;-75
2023/05/01 10:29:40;;;;;;;9.82;4.97;;;;;;;;;;4960866;28;25069;-75
2023/05/01 10:32:07;;;;;;;10.02;5.53;;;;;;;;;;4966866;28;25069;-74
2023/05/01 10:34:39;;;;;;;13.32;6.15;;;;;;;;;;4980292;28;25071;-74
2023/05/01 10:37:05;;;;;;;;;;;;;;;;;;4974321;28;25097;-76
2023/05/01 10:39:36;;;;;;;11.27;6.90;;;;;;;;;;4965166;28;25135;-77
2023/05/01 10:42:03;;;;;;;11.43;6.47;;;;;;;;;;4973469;28;25090;-75
2023/05/01 10:44:29;;;;;;;17.05;5.88;;;;;;;;;;4970144;28;25084;-76
2023/05/01 10:46:55;;;;;;;12.70;6.07;;;;;;;;;;4968886;28;25052;-76
2023/05/01 10:49:21;;;;;;;13.73;6.40;;;;;;;;;;4967284;28;25063;-75
2023/05/01 10:51:57;;;;;;;9.30;5.38;;;;;;;;;;4965626;28;25152;-76
2023/05/01 10:54:23;;;;;;;11.77;5.53;;;;;;;;;;4962771;28;25136;-76
2023/05/01 10:56:50;;;;;;;11.85;6.65;;;;;;;;;;4978479;28;25072;-76
2023/05/01 10:59:16;;;;;;;12.88;6.60;;;;;;;;;;4972199;28;25109;-77
2023/05/01 11:01:52;;;;;;;12.13;5.85;;;;;;;;;;4975203;28;25101;-76
2023/05/01 11:04:21;;;;;;;15.73;7.03;;;;;;;;;;4968525;28;25050;-75
2023/05/01 11:07:03;;;;;;;12.45;6.05;;;;;;;;;;4997689;28;25105;-75
2023/05/01 11:09:39;;;;;;;16.20;7.18;;;;;;;;;;4969984;28;25057;-74
2023/05/01 11:12:06;;;;;;;12.93;6.70;;;;;;;;;;4977098;28;25077;-76
2023/05/01 11:14:51;;;;;;;10.98;6.43;;;;;;;;;;4973874;28;25082;-75
2023/05/01 11:17:36;;;;;;;13.02;7.72;;;;;;;;;;4975841;28;25090;-76
2023/05/01 11:20:02;;;;;;;14.68;6.72;;;;;;;;;;4978939;28;25106;-75
2023/05/01 11:22:29;;;;;;;17.52;7.68;;;;;;;;;;4969585;28;25052;-76
2023/05/01 11:24:55;;;;;;;15.98;7.18;;;;;;;;;;4970166;28;25018;-76
2023/05/01 11:27:22;;;;;;;11.98;7.53;;;;;;;;;;4974614;28;25028;-76
2023/05/01 11:29:49;;;;;;;17.50;7.43;;;;;;;;;;4974233;28;25068;-77
2023/05/01 11:32:19;;;;;;;11.70;7.03;;;;;;;;;;4969757;28;25049;-77
2023/05/01 11:34:47;;;;;;;13.52;7.95;;;;;;;;;;4972579;28;25077;-77
2023/05/01 11:37:13;;;;;;;11.05;7.47;;;;;;;;;;4974950;28;25081;-77
2023/05/01 11:39:46;;;;;;;11.65;6.85;;;;;;;;;;4973497;28;25071;-74
2023/05/01 11:42:12;;;;;;;11.18;7.15;;;;;;;;;;4981394;28;24961;-76
2023/05/01 11:44:38;;;;;;;11.77;8.05;;;;;;;;;;4975516;28;25136;-75
2023/05/01 11:47:06;;;;;;;13.43;8.07;;;;;;;;;;4976401;28;25060;-75
2023/05/01 11:49:33;;;;;;;15.52;8.15;;;;;;;;;;4978502;28;25070;-76
2023/05/01 11:51:59;;;;;;;15.35;9.75;;;;;;;;;;4972186;28;25075;-75
2023/05/01 11:54:26;;;;;;;16.23;9.10;;;;;;;;;;4980722;28;25183;-76
2023/05/01 11:56:59;;;;;;;13.30;8.15;;;;;;;;;;4982382;28;25053;-77
2023/05/01 11:59:26;;;;;;;15.10;7.57;;;;;;;;;;4969926;28;25059;-75
2023/05/01 12:01:52;;;;;;;17.92;7.97;;;;;;;;;;4970901;28;25166;-76
2023/05/01 12:04:27;;;;;;;14.18;7.47;;;;;;;;;;4984213;28;25069;-76
2023/05/01 12:06:53;;;;;;;14.30;8.20;;;;;;;;;;4975916;28;25089;-75
2023/05/01 12:09:21;;;;;;;13.85;7.43;;;;;;;;;;4972973;28;25113;-75
2023/05/01 12:11:48;;;;;;;12.70;8.23;;;;;;;;;;4986480;28;25050;-74
2023/05/01 12:14:15;;;;;;;20.58;9.55;;;;;;;;;;4965570;28;25051;-74
2023/05/01 12:16:41;;;;;;;12.48;7.97;;;;;;;;;;4973245;28;25070;-76
2023/05/01 12:19:07;;;;;;;13.13;6.90;;;;;;;;;;4969276;28;25114;-73
2023/05/01 12:21:35;;;;;;;9.50;6.63;;;;;;;;;;4986507;28;25060;-76
2023/05/01 12:24:17;;;;;;;13.07;6.97;;;14.50;99.90;;;;;;4973480;28;25045;-76
2023/05/01 12:26:44;;;;;;;13.75;8.00;;;;;;;;;;4973573;28;25067;-75
2023/05/01 12:29:10;;;;;;;11.90;7.38;;;;;;;;;;4974831;28;25103;-75
2023/05/01 12:31:36;;;;;;;13.25;7.07;;;;;;;;;;4976392;28;25151;-76
2023/05/01 12:34:03;;;;;;;11.50;7.00;;;;;;;;;;4971947;28;25074;-76
2023/05/01 12:36:30;;;;;;;12.48;6.60;;;;;;;;;;4983358;28;25075;-75
2023/05/01 12:39:01;;;;;;;11.05;7.43;;;;;;;;;;4973857;28;25057;-75
2023/05/01 12:41:47;;;;;;;15.45;7.50;;;;;;;;;;4972708;28;25137;-76
2023/05/01 12:44:24;;;;;;;13.27;7.47;;;;;;;;;;4974005;28;25066;-76
2023/05/01 12:46:54;;;;;;;12.80;6.72;;;;;;;;;;4985882;28;25079;-76
2023/05/01 12:49:21;;;;;;;15.02;6.28;;;;;;;;;;4999257;28;25069;-73
2023/05/01 12:51:50;;;;;;;7.88;5.43;;;;;;;;;;4985353;28;25070;-75
2023/05/01 12:54:20;;;;;;;8.02;5.65;;;;;;;;;;4983029;28;25080;-76
2023/05/01 12:56:47;;;;;;;11.40;5.90;;;;;;;;;;4969019;28;25087;-76
2023/05/01 12:59:22;;;;;;;7.50;5.50;;;;;;;;;;4991224;28;25075;-78
2023/05/01 13:01:56;;;;;;;10.63;5.63;;;;;;;;;;4992799;28;25078;-77
2023/05/01 13:04:22;;;;;;;6.43;4.72;;;;;;;;;;4990464;28;25150;-74
2023/05/01 13:06:48;;;;;;;8.27;5.50;;;;;;;;;;4982039;28;25071;-74
2023/05/01 13:09:16;;;;;;;9.55;6.03;;;;;;;;;;4970988;28;25084;-75
2023/05/01 13:11:42;;;;;;;9.35;4.90;;;;;;;;;;4975468;28;25064;-76
2023/05/01 13:14:08;;;;;;;8.15;5.40;;;;;;;;;;4972048;28;25081;-76
2023/05/01 13:16:44;;;;;;;9.45;6.10;;;;;;;;;;4988261;28;25095;-75
2023/05/01 13:19:10;;;;;;;5.97;5.10;;;;;;;;;;4973742;28;25070;-73
2023/05/01 13:21:46;;;;;;;6.53;4.80;;;;;;;;;;4979670;28;25079;-75
2023/05/01 13:24:13;;;;;;;8.80;5.35;;;;;;;;;;4971181;28;25078;-76
2023/05/01 13:26:39;;;;;;;6.97;5.03;;;;;;;;;;4968413;28;25064;-77
2023/05/01 13:29:05;;;;;;;8.32;5.45;;;;;;;;;;4966507;28;25099;-75
2023/05/01 13:31:31;;;;;;;9.02;5.55;;;;;;;;;;4974062;28;25068;-74
2023/05/01 13:33:58;;;;;;;6.72;4.75;;;;;;;;;;4973388;28;25046;-75
2023/05/01 13:36:25;;;;;;;7.90;5.45;;;;;;;;;;4973705;28;25080;-77
2023/05/01 13:38:52;;;;;;;9.43;5.53;;;;;;;;;;4971098;28;25060;-77
2023/05/01 13:41:23;;;;;;;7.22;5.32;;;;;;;;;;4967274;28;25082;-75
2023/05/01 13:43:49;;;;;;;7.53;5.88;;;;;;;;;;4970241;28;25058;-78
2023/05/01 13:46:16;;;;;;;7.65;5.38;;;;;;;;;;4974947;28;25102;-74
2023/05/01 13:48:42;;;;;;;7.70;5.50;;;;;;;;;;4968436;28;25062;-74
2023/05/01 13:51:08;;;;;;;8.38;5.55;;;;;;;;;;4975964;28;25065;-76
2023/05/01 13:53:34;;;;;;;8.07;5.53;;;;;;;;;;4972749;28;25159;-76
2023/05/01 13:56:03;;;;;;;7.55;6.05;;;;;;;;;;4998415;28;25103;-76
2023/05/01 13:58:29;;;;;;;10.27;6.43;;;;;;;;;;4982094;28;25093;-77
2023/05/01 14:00:55;;;;;;;9.63;6.00;;;;;;;;;;4977381;28;25081;-75
2023/05/01 14:03:21;;;;;;;11.80;6.50;;;;;;;;;;4977069;28;25066;-75
2023/05/01 14:05:47;;;;;;;9.43;6.25;;;;;;;;;;4974991;28;25063;-76
2023/05/01 14:08:14;;;;;;;9.90;6.90;;;;;;;;;;4974514;28;25055;-75
2023/05/01 14:10:40;;;;;;;10.52;6.25;;;;;;;;;;4964129;28;25076;-75
2023/05/01 14:13:06;;;;;;;10.85;7.18;;;;;;;;;;4969115;28;25090;-75
2023/05/01 14:15:35;;;;;;;9.15;6.43;;;;;;;;;;4965359;28;25128;-76
2023/05/01 14:18:05;;;;;;;10.35;5.75;;;;;;;;;;4966651;28;25105;-77
2023/05/01 14:20:31;;;;;;;8.18;6.32;;;16.90;99.90;;;;;;4966320;28;25059;-76
2023/05/01 14:22:57;;;;;;;14.98;6.47;;;;;;;;;;4972013;28;25049;-78
2023/05/01 14:25:30;;;;;;;13.00;6.90;;;;;;;;;;4966029;28;25065;-76
2023/05/01 14:27:57;;;;;;;11.45;6.57;;;;;;;;;;4990989;28;25109;-77
2023/05/01 14:30:26;;;;;;;10.35;6.80;;;;;;;;;;4962473;28;25054;-74
2023/05/01 14:32:52;;;;;;;10.38;6.10;;;;;;;;;;4961996;28;25061;-75
2023/05/01 14:35:20;;;;;;;12.27;6.80;;;;;;;;;;4966108;28;25073;-76
2023/05/01 14:37:46;;;;;;;11.73;6.38;;;;;;;;;;4960312;28;25075;-75